Woodhaven, Michigan
Current Conditions -  °F | °C
As of 4:54 PM on Tuesday 25 Nov 2014 (Local Time) from KONZ Reporting Station
Overcast Overcast  
Wind Chill: 21°   Ceiling: 3600
Heat Index: 30°   Visibility: 10mi
Dew Point: 23°   Wind: 10mph
Humidity: 75%   Direction: 250°WSW
Pressure: 30.11"   Gusts: 16mph
Location:  42.14°N, 83.24°W
Report Text: KONZ 252154Z AUTO 25009G14KT 10SM OVC036 M01/M05 A3011 RMK AO2
Loading
Personal Weather Stations






























Interactive Weather Map New forecast layout! Learn more

10-Day Weather Forecast

Advertisements
Track Severe Weather on mobile